createdAt,value
2022-09-22T00:00:30.510Z,34.00
2022-09-22T00:05:33.396Z,33.42
2022-09-22T00:10:36.306Z,33.15
2022-09-22T00:15:46.549Z,34.40
2022-09-22T00:20:49.401Z,33.63
2022-09-22T00:25:52.418Z,33.60
2022-09-22T00:30:56.659Z,33.67
2022-09-22T00:36:00.485Z,33.45
2022-09-22T00:41:04.987Z,33.13
2022-09-22T00:46:16.557Z,33.13
2022-09-22T00:51:23.959Z,33.28
2022-09-22T00:56:31.320Z,33.28
2022-09-22T01:01:40.289Z,33.30
2022-09-22T01:06:44.296Z,33.22
2022-09-22T01:11:47.198Z,33.33
2022-09-22T01:16:57.346Z,33.15
2022-09-22T01:22:13.698Z,33.50
2022-09-22T01:27:53.974Z,33.92
2022-09-22T01:33:31.528Z,33.38
2022-09-22T01:38:39.128Z,34.03
2022-09-22T01:43:48.790Z,33.63
2022-09-22T01:48:55.478Z,33.42
2022-09-22T01:54:02.462Z,33.78
2022-09-22T01:59:08.341Z,34.53
2022-09-22T02:04:17.994Z,33.80
2022-09-22T02:09:24.781Z,34.50
2022-09-22T02:14:28.069Z,34.17
2022-09-22T02:19:37.744Z,34.00
2022-09-22T02:24:43.148Z,34.35
2022-09-22T02:29:50.649Z,34.67
2022-09-22T02:34:56.231Z,34.17
2022-09-22T02:40:08.856Z,34.22
2022-09-22T02:45:18.396Z,34.10
2022-09-22T02:50:24.872Z,34.08
2022-09-22T02:55:27.698Z,33.85
2022-09-22T03:00:31.332Z,33.28
2022-09-22T03:05:35.508Z,33.85
2022-09-22T03:10:38.316Z,33.47
2022-09-22T03:15:41.427Z,34.38
2022-09-22T03:20:45.778Z,33.78
2022-09-22T03:25:48.573Z,33.70
2022-09-22T03:30:51.434Z,33.38
2022-09-22T03:35:55.810Z,34.45
2022-09-22T03:41:01.297Z,33.60
2022-09-22T03:46:04.423Z,33.53
2022-09-22T03:51:14.877Z,35.30
2022-09-22T03:56:17.722Z,36.50
2022-09-22T04:01:20.854Z,34.50
2022-09-22T04:06:25.411Z,33.65
2022-09-22T04:11:28.273Z,33.40
2022-09-22T04:16:31.460Z,34.17
2022-09-22T04:21:35.702Z,34.22
2022-09-22T04:26:44.473Z,34.17
2022-09-22T04:31:59.402Z,35.25
2022-09-22T04:37:03.678Z,40.58
2022-09-22T04:42:08.910Z,38.42
2022-09-22T04:47:11.792Z,35.90
2022-09-22T04:52:17.045Z,34.40
2022-09-22T04:57:20.666Z,34.83
2022-09-22T05:02:23.746Z,33.88
2022-09-22T05:07:28.358Z,33.88
2022-09-22T05:12:31.663Z,34.50
2022-09-22T05:17:35.847Z,34.60
2022-09-22T05:22:41.490Z,34.28
2022-09-22T05:27:45.454Z,34.67
2022-09-22T05:32:49.622Z,34.08
2022-09-22T05:37:54.900Z,33.80
2022-09-22T05:42:58.033Z,33.95
2022-09-22T05:48:00.853Z,34.97
2022-09-22T05:53:06.688Z,33.97
2022-09-22T05:58:12.414Z,34.17
2022-09-22T06:03:15.318Z,33.22
2022-09-22T06:08:19.572Z,33.33
2022-09-22T06:13:22.419Z,33.50
2022-09-22T06:18:26.382Z,33.60
2022-09-22T06:23:31.914Z,34.00
2022-09-22T06:28:35.440Z,33.20
2022-09-22T06:33:38.363Z,34.25
2022-09-22T06:38:42.499Z,33.72
2022-09-22T06:43:47.865Z,34.05
2022-09-22T06:48:51.555Z,33.67
2022-09-22T06:53:55.996Z,34.60
2022-09-22T06:59:09.976Z,34.95
2022-09-22T07:04:14.157Z,34.90
2022-09-22T07:09:18.368Z,35.25
2022-09-22T07:14:22.314Z,35.67
2022-09-22T07:19:25.198Z,35.05
2022-09-22T07:24:29.407Z,34.80
2022-09-22T07:29:32.780Z,35.65
2022-09-22T07:34:35.630Z,34.90
2022-09-22T07:39:39.862Z,35.92
2022-09-22T07:45:00.238Z,35.00
2022-09-22T07:50:04.454Z,35.88
2022-09-22T07:55:09.471Z,35.78
2022-09-22T08:00:13.562Z,35.40
2022-09-22T08:05:17.024Z,36.08
2022-09-22T08:10:21.363Z,44.05
2022-09-22T08:15:27.152Z,35.85
2022-09-22T08:20:30.284Z,35.78
2022-09-22T08:25:34.775Z,35.97
2022-09-22T08:30:45.625Z,35.15
2022-09-22T08:35:53.280Z,36.05
2022-09-22T08:41:17.497Z,35.95
2022-09-22T08:46:20.506Z,35.72
2022-09-22T08:51:47.335Z,35.75
2022-09-22T08:57:16.490Z,35.55
2022-09-22T09:02:40.076Z,35.20
2022-09-22T09:07:57.985Z,35.10
2022-09-22T09:13:15.635Z,35.33
2022-09-22T09:18:24.195Z,34.95
2022-09-22T09:29:10.907Z,34.40
2022-09-22T09:34:17.761Z,34.83
2022-09-22T09:39:33.041Z,34.42
2022-09-22T09:44:40.469Z,34.85
2022-09-22T09:49:43.900Z,34.00
2022-09-22T09:54:47.164Z,34.38
2022-09-22T10:00:33.135Z,34.55
2022-09-22T10:05:37.738Z,34.70
2022-09-22T10:10:41.423Z,34.05
2022-09-22T10:16:02.449Z,34.38
2022-09-22T10:21:08.200Z,34.28
2022-09-22T10:26:19.964Z,34.33
2022-09-22T10:31:25.294Z,34.42
2022-09-22T10:36:30.779Z,34.40
2022-09-22T10:41:37.076Z,34.72
2022-09-22T10:46:55.997Z,35.50
2022-09-22T10:52:08.485Z,34.03
2022-09-22T10:57:24.822Z,35.05
2022-09-22T11:02:59.937Z,35.03
2022-09-22T11:08:29.018Z,34.63
2022-09-22T11:13:41.825Z,34.72
2022-09-22T11:19:06.725Z,34.95
2022-09-22T11:24:26.308Z,34.88
2022-09-22T11:29:50.509Z,35.20
2022-09-22T11:35:14.365Z,35.17
2022-09-22T11:40:34.432Z,35.22
2022-09-22T11:45:46.448Z,34.67
2022-09-22T11:51:16.318Z,34.80
2022-09-22T11:56:41.122Z,34.33
2022-09-22T12:01:45.008Z,34.75
2022-09-22T12:06:52.904Z,34.65
2022-09-22T12:11:57.588Z,34.80
2022-09-22T12:17:05.885Z,35.05
2022-09-22T12:22:19.442Z,35.22
2022-09-22T12:27:24.108Z,35.90
2022-09-22T12:32:34.315Z,35.08
2022-09-22T12:37:40.283Z,34.97
2022-09-22T12:42:46.672Z,35.83
2022-09-22T12:47:53.504Z,35.17
2022-09-22T12:53:06.996Z,35.35
2022-09-22T12:58:40.816Z,35.55
2022-09-22T13:03:50.509Z,35.22
2022-09-22T13:09:20.363Z,35.55
2022-09-22T13:14:57.885Z,35.20
2022-09-22T13:20:02.162Z,35.33
2022-09-22T13:25:20.983Z,35.90
2022-09-22T13:30:28.982Z,35.40
2022-09-22T13:35:35.293Z,35.58
2022-09-22T13:40:39.528Z,35.90
2022-09-22T13:45:45.893Z,35.40
2022-09-22T13:50:54.267Z,36.88
2022-09-22T13:55:59.446Z,37.00
2022-09-22T14:01:19.855Z,35.85
2022-09-22T14:06:25.451Z,36.00
2022-09-22T14:11:32.292Z,35.75
2022-09-22T14:16:38.966Z,36.10
2022-09-22T14:21:51.171Z,36.38
2022-09-22T14:27:03.030Z,38.47
2022-09-22T14:32:13.334Z,35.75
2022-09-22T14:37:24.155Z,35.95
2022-09-22T14:42:30.684Z,35.42
2022-09-22T14:47:39.347Z,35.70
2022-09-22T14:52:50.674Z,35.75
2022-09-22T14:57:55.068Z,35.80
2022-09-22T15:03:15.805Z,35.45
2022-09-22T15:08:25.167Z,35.35
2022-09-22T15:13:32.271Z,35.80
2022-09-22T15:18:35.610Z,35.83
2022-09-22T15:23:47.951Z,36.17
2022-09-22T15:28:53.544Z,35.65
2022-09-22T15:33:57.661Z,35.95
2022-09-22T15:39:06.632Z,35.85
2022-09-22T15:44:11.269Z,35.88
2022-09-22T15:49:17.967Z,36.22
2022-09-22T15:54:23.526Z,36.30
2022-09-22T15:59:32.289Z,36.55
2022-09-22T16:04:44.405Z,36.30
2022-09-22T16:09:47.684Z,36.05
2022-09-22T16:14:54.918Z,35.80
2022-09-22T16:19:58.529Z,36.08
2022-09-22T16:25:01.694Z,36.25
2022-09-22T16:30:07.464Z,36.05
2022-09-22T16:35:19.632Z,35.97
2022-09-22T16:40:24.280Z,36.30
2022-09-22T16:45:45.832Z,36.15
2022-09-22T16:50:49.386Z,36.25
2022-09-22T16:55:52.975Z,36.15
2022-09-22T17:01:02.961Z,36.45
2022-09-22T17:06:07.432Z,36.28
2022-09-22T17:11:12.238Z,36.20
2022-09-22T17:16:22.643Z,36.60
2022-09-22T17:21:30.169Z,36.55
2022-09-22T17:26:37.247Z,36.15
2022-09-22T17:31:41.611Z,36.67
2022-09-22T17:36:45.845Z,36.25
2022-09-22T17:41:50.028Z,36.40
2022-09-22T17:47:12.189Z,36.47
2022-09-22T17:52:33.920Z,36.20
2022-09-22T17:57:38.920Z,36.10
2022-09-22T18:02:43.790Z,36.38
2022-09-22T18:07:49.540Z,36.22
2022-09-22T18:12:54.716Z,36.85
2022-09-22T18:17:59.036Z,36.45
2022-09-22T18:23:02.480Z,36.60
2022-09-22T18:28:05.615Z,35.63
2022-09-22T18:33:14.748Z,36.17
2022-09-22T18:38:20.519Z,36.80
2022-09-22T18:43:23.639Z,35.80
2022-09-22T18:48:27.895Z,35.50
2022-09-22T18:53:30.881Z,35.85
2022-09-22T18:58:44.404Z,35.78
2022-09-22T19:03:49.066Z,35.67
2022-09-22T19:09:00.949Z,35.72
2022-09-22T19:14:04.515Z,35.45
2022-09-22T19:19:08.881Z,36.03
2022-09-22T19:24:11.854Z,35.67
2022-09-22T19:29:14.820Z,35.58
2022-09-22T19:34:19.223Z,35.38
2022-09-22T19:39:22.433Z,35.47
2022-09-22T19:44:27.008Z,35.90
2022-09-22T19:49:31.347Z,35.47
2022-09-22T19:54:34.396Z,35.45
2022-09-22T19:59:37.252Z,35.72
2022-09-22T20:04:43.759Z,35.40
2022-09-22T20:09:48.129Z,36.47
2022-09-22T20:14:51.439Z,35.95
2022-09-22T20:19:55.827Z,36.13
2022-09-22T20:25:01.349Z,36.00
2022-09-22T20:30:05.239Z,35.42
2022-09-22T20:35:11.773Z,35.60
2022-09-22T20:40:18.592Z,35.72
2022-09-22T20:45:22.831Z,35.75
2022-09-22T20:50:27.335Z,35.72
2022-09-22T20:55:30.188Z,35.08
2022-09-22T21:00:36.101Z,34.90
2022-09-22T21:05:40.313Z,35.25
2022-09-22T21:10:43.165Z,34.60
2022-09-22T21:15:46.107Z,34.80
2022-09-22T21:20:50.266Z,35.28
2022-09-22T21:25:57.419Z,35.00
2022-09-22T21:31:04.272Z,35.08
2022-09-22T21:36:11.300Z,35.35
2022-09-22T21:41:16.171Z,34.92
2022-09-22T21:46:21.290Z,34.58
2022-09-22T21:51:25.951Z,34.35
2022-09-22T21:56:30.091Z,35.33
2022-09-22T22:01:35.209Z,34.65
2022-09-22T22:06:42.070Z,34.22
2022-09-22T22:11:49.146Z,34.70
2022-09-22T22:16:54.577Z,34.78
2022-09-22T22:21:58.819Z,34.75
2022-09-22T22:27:05.960Z,34.22
2022-09-22T22:32:10.264Z,34.85
2022-09-22T22:37:14.488Z,34.58
2022-09-22T22:42:17.372Z,34.35
2022-09-22T22:47:20.244Z,34.88
2022-09-22T22:52:24.552Z,34.38
2022-09-22T22:57:28.290Z,34.45
2022-09-22T23:02:31.235Z,35.13
2022-09-22T23:07:35.464Z,34.30
2022-09-22T23:12:40.181Z,35.58
2022-09-22T23:17:43.221Z,35.03
2022-09-22T23:22:49.078Z,35.20
2022-09-22T23:27:51.905Z,35.10
2022-09-22T23:32:54.731Z,34.75
2022-09-22T23:37:58.919Z,35.38
2022-09-22T23:43:01.983Z,34.80
2022-09-22T23:48:05.359Z,34.63
2022-09-22T23:53:09.614Z,34.75
2022-09-22T23:58:14.344Z,34.50
